sensor_id;sensor_type;location;lat;lon;timestamp;pressure;altitude;pressure_sealevel;temperature;humidity
51195;BME280;37259;49.972;19.850;2023-04-01T00:00:06;97010;;;10.6;68.6
51195;BME280;37259;49.972;19.850;2023-04-01T00:01:05;97010;;;10.6;68.6
51195;BME280;37259;49.972;19.850;2023-04-01T00:02:05;97010;;;10.6;68.6
51195;BME280;37259;49.972;19.850;2023-04-01T00:03:05;97010;;;10.6;68.6
51195;BME280;37259;49.972;19.850;2023-04-01T00:04:05;97010;;;10.6;68.6
51195;BME280;37259;49.972;19.850;2023-04-01T00:05:05;97010;;;10.6;68.7
51195;BME280;37259;49.972;19.850;2023-04-01T00:06:05;97010;;;10.6;68.7
51195;BME280;37259;49.972;19.850;2023-04-01T00:07:05;97000;;;10.6;68.8
51195;BME280;37259;49.972;19.850;2023-04-01T00:08:05;97000;;;10.6;68.7
51195;BME280;37259;49.972;19.850;2023-04-01T00:09:05;96990;;;10.6;68.7
51195;BME280;37259;49.972;19.850;2023-04-01T00:10:06;97000;;;10.6;68.7
51195;BME280;37259;49.972;19.850;2023-04-01T00:11:05;97000;;;10.6;68.7
51195;BME280;37259;49.972;19.850;2023-04-01T00:12:05;97000;;;10.6;68.8
51195;BME280;37259;49.972;19.850;2023-04-01T00:13:05;97000;;;10.6;68.8
51195;BME280;37259;49.972;19.850;2023-04-01T00:14:05;96990;;;10.6;68.8
51195;BME280;37259;49.972;19.850;2023-04-01T00:15:06;96990;;;10.6;68.8
51195;BME280;37259;49.972;19.850;2023-04-01T00:16:06;96990;;;10.6;68.8
51195;BME280;37259;49.972;19.850;2023-04-01T00:17:05;96990;;;10.6;69
51195;BME280;37259;49.972;19.850;2023-04-01T00:18:05;96990;;;10.6;69
51195;BME280;37259;49.972;19.850;2023-04-01T00:19:05;96990;;;10.6;69.1
51195;BME280;37259;49.972;19.850;2023-04-01T00:20:06;96990;;;10.6;69.1
51195;BME280;37259;49.972;19.850;2023-04-01T00:21:05;96990;;;10.6;69.2
51195;BME280;37259;49.972;19.850;2023-04-01T00:22:05;96990;;;10.6;69.2
51195;BME280;37259;49.972;19.850;2023-04-01T00:23:05;96990;;;10.6;69.2
51195;BME280;37259;49.972;19.850;2023-04-01T00:24:05;96990;;;10.6;69.1
51195;BME280;37259;49.972;19.850;2023-04-01T00:25:05;96990;;;10.6;69.1
51195;BME280;37259;49.972;19.850;2023-04-01T00:26:05;96990;;;10.6;69.1
51195;BME280;37259;49.972;19.850;2023-04-01T00:27:05;96990;;;10.6;69.3
51195;BME280;37259;49.972;19.850;2023-04-01T00:28:05;96980;;;10.6;69.2
51195;BME280;37259;49.972;19.850;2023-04-01T00:29:05;96990;;;10.6;69.3
51195;BME280;37259;49.972;19.850;2023-04-01T00:30:05;96990;;;10.6;69.3
51195;BME280;37259;49.972;19.850;2023-04-01T00:31:05;96990;;;10.6;69.3
51195;BME280;37259;49.972;19.850;2023-04-01T00:32:05;96980;;;10.5;69.5
51195;BME280;37259;49.972;19.850;2023-04-01T00:33:05;96980;;;10.5;69.5
51195;BME280;37259;49.972;19.850;2023-04-01T00:34:05;96980;;;10.5;69.5
51195;BME280;37259;49.972;19.850;2023-04-01T00:35:05;96970;;;10.5;69.6
51195;BME280;37259;49.972;19.850;2023-04-01T00:36:06;96970;;;10.5;69.6
51195;BME280;37259;49.972;19.850;2023-04-01T00:37:05;96980;;;10.5;69.6
51195;BME280;37259;49.972;19.850;2023-04-01T00:38:05;96980;;;10.5;69.7
51195;BME280;37259;49.972;19.850;2023-04-01T00:39:05;96980;;;10.5;69.7
51195;BME280;37259;49.972;19.850;2023-04-01T00:40:07;96980;;;10.5;69.7
51195;BME280;37259;49.972;19.850;2023-04-01T00:41:05;96970;;;10.5;69.7
51195;BME280;37259;49.972;19.850;2023-04-01T00:42:05;96970;;;10.5;69.7
51195;BME280;37259;49.972;19.850;2023-04-01T00:43:09;96970;;;10.5;69.8
51195;BME280;37259;49.972;19.850;2023-04-01T00:44:21;96970;;;10.5;69.9
51195;BME280;37259;49.972;19.850;2023-04-01T00:45:23;96970;;;10.5;69.9
51195;BME280;37259;49.972;19.850;2023-04-01T00:46:05;96970;;;10.5;69.9
51195;BME280;37259;49.972;19.850;2023-04-01T00:47:05;96970;;;10.5;69.9
51195;BME280;37259;49.972;19.850;2023-04-01T00:48:05;96970;;;10.4;70
51195;BME280;37259;49.972;19.850;2023-04-01T00:49:05;96970;;;10.4;70
51195;BME280;37259;49.972;19.850;2023-04-01T00:50:05;96980;;;10.5;70
51195;BME280;37259;49.972;19.850;2023-04-01T00:51:06;96980;;;10.5;70
51195;BME280;37259;49.972;19.850;2023-04-01T00:52:05;96970;;;10.5;70
51195;BME280;37259;49.972;19.850;2023-04-01T00:53:05;96970;;;10.4;70.1
51195;BME280;37259;49.972;19.850;2023-04-01T00:54:05;96970;;;10.4;70.1
51195;BME280;37259;49.972;19.850;2023-04-01T00:55:05;96970;;;10.4;70.1
51195;BME280;37259;49.972;19.850;2023-04-01T00:56:05;96970;;;10.4;70.1
51195;BME280;37259;49.972;19.850;2023-04-01T00:57:05;96980;;;10.4;70.2
51195;BME280;37259;49.972;19.850;2023-04-01T00:58:06;96980;;;10.4;70.2
51195;BME280;37259;49.972;19.850;2023-04-01T00:59:06;96970;;;10.4;70.3
51195;BME280;37259;49.972;19.850;2023-04-01T01:00:06;96970;;;10.4;70.3
51195;BME280;37259;49.972;19.850;2023-04-01T01:01:05;96970;;;10.4;70.3
51195;BME280;37259;49.972;19.850;2023-04-01T01:02:06;96970;;;10.4;70.2
51195;BME280;37259;49.972;19.850;2023-04-01T01:03:05;96970;;;10.4;70.2
51195;BME280;37259;49.972;19.850;2023-04-01T01:04:05;96970;;;10.4;70.1
51195;BME280;37259;49.972;19.850;2023-04-01T01:05:05;96970;;;10.4;70.3
51195;BME280;37259;49.972;19.850;2023-04-01T01:06:10;96970;;;10.4;70.3
51195;BME280;37259;49.972;19.850;2023-04-01T01:07:08;96970;;;10.4;70.3
51195;BME280;37259;49.972;19.850;2023-04-01T01:08:07;96970;;;10.4;70.3
51195;BME280;37259;49.972;19.850;2023-04-01T01:09:09;96970;;;10.3;70.6
51195;BME280;37259;49.972;19.850;2023-04-01T01:10:07;96970;;;10.3;70.6
51195;BME280;37259;49.972;19.850;2023-04-01T01:11:05;96970;;;10.3;70.8
51195;BME280;37259;49.972;19.850;2023-04-01T01:12:06;96970;;;10.3;70.8
51195;BME280;37259;49.972;19.850;2023-04-01T01:13:08;96980;;;10.3;70.7
51195;BME280;37259;49.972;19.850;2023-04-01T01:14:07;96980;;;10.3;70.9
51195;BME280;37259;49.972;19.850;2023-04-01T01:15:07;96980;;;10.3;70.9
51195;BME280;37259;49.972;19.850;2023-04-01T01:16:06;96980;;;10.3;71
51195;BME280;37259;49.972;19.850;2023-04-01T01:17:06;96970;;;10.3;71
51195;BME280;37259;49.972;19.850;2023-04-01T01:18:06;96970;;;10.3;71
51195;BME280;37259;49.972;19.850;2023-04-01T01:19:07;96980;;;10.3;71.1
51195;BME280;37259;49.972;19.850;2023-04-01T01:20:42;96980;;;10.3;71.1
51195;BME280;37259;49.972;19.850;2023-04-01T01:21:09;96980;;;10.3;71.1
51195;BME280;37259;49.972;19.850;2023-04-01T01:22:09;96980;;;10.3;71.1
51195;BME280;37259;49.972;19.850;2023-04-01T01:23:11;96980;;;10.3;71.1
51195;BME280;37259;49.972;19.850;2023-04-01T01:24:12;96980;;;10.3;71.1
51195;BME280;37259;49.972;19.850;2023-04-01T01:25:10;96980;;;10.3;71.1
51195;BME280;37259;49.972;19.850;2023-04-01T01:26:09;96980;;;10.3;71.1
51195;BME280;37259;49.972;19.850;2023-04-01T01:27:06;96980;;;10.3;71.1
51195;BME280;37259;49.972;19.850;2023-04-01T01:28:11;96980;;;10.3;71.1
51195;BME280;37259;49.972;19.850;2023-04-01T01:29:07;96980;;;10.3;71.1
51195;BME280;37259;49.972;19.850;2023-04-01T01:30:08;96980;;;10.3;71.1
51195;BME280;37259;49.972;19.850;2023-04-01T01:31:07;96980;;;10.3;71.1
51195;BME280;37259;49.972;19.850;2023-04-01T01:32:06;96980;;;10.3;71.1
51195;BME280;37259;49.972;19.850;2023-04-01T01:33:06;96980;;;10.3;71.1
51195;BME280;37259;49.972;19.850;2023-04-01T01:34:09;96980;;;10.3;71.1
51195;BME280;37259;49.972;19.850;2023-04-01T01:35:10;96980;;;10.3;71.1
51195;BME280;37259;49.972;19.850;2023-04-01T01:36:06;96980;;;10.3;71.1
51195;BME280;37259;49.972;19.850;2023-04-01T01:37:06;96980;;;10.3;71.1
51195;BME280;37259;49.972;19.850;2023-04-01T01:38:06;96980;;;10.3;71.1
51195;BME280;37259;49.972;19.850;2023-04-01T01:39:05;96980;;;10.3;71.1
51195;BME280;37259;49.972;19.850;2023-04-01T01:40:06;96980;;;10.3;71.3
51195;BME280;37259;49.972;19.850;2023-04-01T01:41:06;96980;;;10.3;71.3
51195;BME280;37259;49.972;19.850;2023-04-01T01:42:06;96980;;;10.3;71.2
51195;BME280;37259;49.972;19.850;2023-04-01T01:43:06;96980;;;10.3;71.2
51195;BME280;37259;49.972;19.850;2023-04-01T01:44:06;96990;;;10.3;71.3
51195;BME280;37259;49.972;19.850;2023-04-01T01:45:05;96990;;;10.3;71.4
51195;BME280;37259;49.972;19.850;2023-04-01T01:46:06;96990;;;10.3;71.4
51195;BME280;37259;49.972;19.850;2023-04-01T01:47:05;96990;;;10.3;71.4
51195;BME280;37259;49.972;19.850;2023-04-01T01:48:05;96990;;;10.3;71.4
51195;BME280;37259;49.972;19.850;2023-04-01T01:49:05;97000;;;10.3;71.4
51195;BME280;37259;49.972;19.850;2023-04-01T01:50:05;97000;;;10.3;71.4
51195;BME280;37259;49.972;19.850;2023-04-01T01:51:06;97000;;;10.3;71.4
51195;BME280;37259;49.972;19.850;2023-04-01T01:52:05;97000;;;10.3;71.3
51195;BME280;37259;49.972;19.850;2023-04-01T01:53:06;97000;;;10.3;71.3
51195;BME280;37259;49.972;19.850;2023-04-01T01:54:05;97000;;;10.3;71.4
51195;BME280;37259;49.972;19.850;2023-04-01T01:55:22;97000;;;10.3;71.4
51195;BME280;37259;49.972;19.850;2023-04-01T01:56:05;97000;;;10.3;71.4
51195;BME280;37259;49.972;19.850;2023-04-01T01:57:06;97000;;;10.4;71.3
51195;BME280;37259;49.972;19.850;2023-04-01T01:58:06;97000;;;10.3;71.3
51195;BME280;37259;49.972;19.850;2023-04-01T01:59:06;97000;;;10.3;71.2
51195;BME280;37259;49.972;19.850;2023-04-01T02:00:06;97000;;;10.3;71.1
51195;BME280;37259;49.972;19.850;2023-04-01T02:01:06;97000;;;10.3;71.2
51195;BME280;37259;49.972;19.850;2023-04-01T02:02:05;97000;;;10.3;71.2
51195;BME280;37259;49.972;19.850;2023-04-01T02:03:05;97000;;;10.3;71.2
51195;BME280;37259;49.972;19.850;2023-04-01T02:04:05;97000;;;10.3;71.1
51195;BME280;37259;49.972;19.850;2023-04-01T02:05:05;96990;;;10.3;71.1
51195;BME280;37259;49.972;19.850;2023-04-01T02:06:06;96990;;;10.3;71.2
51195;BME280;37259;49.972;19.850;2023-04-01T02:07:07;96990;;;10.3;71.2
51195;BME280;37259;49.972;19.850;2023-04-01T02:08:06;96990;;;10.3;71.1
51195;BME280;37259;49.972;19.850;2023-04-01T02:09:06;96990;;;10.3;71.1
51195;BME280;37259;49.972;19.850;2023-04-01T02:10:05;96990;;;10.3;71.2
51195;BME280;37259;49.972;19.850;2023-04-01T02:11:06;97000;;;10.3;71.2
51195;BME280;37259;49.972;19.850;2023-04-01T02:12:06;97000;;;10.3;71.2
51195;BME280;37259;49.972;19.850;2023-04-01T02:13:06;97000;;;10.2;71.3
51195;BME280;37259;49.972;19.850;2023-04-01T02:14:06;96990;;;10.3;71.2
51195;BME280;37259;49.972;19.850;2023-04-01T02:15:06;97000;;;10.2;71.2
51195;BME280;37259;49.972;19.850;2023-04-01T02:16:08;97000;;;10.2;71.2
51195;BME280;37259;49.972;19.850;2023-04-01T02:17:06;97000;;;10.2;71.2
51195;BME280;37259;49.972;19.850;2023-04-01T02:18:05;97000;;;10.3;71.2
51195;BME280;37259;49.972;19.850;2023-04-01T02:19:05;97000;;;10.3;71.2
51195;BME280;37259;49.972;19.850;2023-04-01T02:20:06;97000;;;10.3;71.2
51195;BME280;37259;49.972;19.850;2023-04-01T02:21:05;97000;;;10.3;71.2
51195;BME280;37259;49.972;19.850;2023-04-01T02:22:06;97000;;;10.2;71.3
51195;BME280;37259;49.972;19.850;2023-04-01T02:23:05;97000;;;10.2;71.3
51195;BME280;37259;49.972;19.850;2023-04-01T02:24:07;97000;;;10.2;71.3
51195;BME280;37259;49.972;19.850;2023-04-01T02:25:06;97000;;;10.2;71.3
51195;BME280;37259;49.972;19.850;2023-04-01T02:26:05;97010;;;10.2;71.5
51195;BME280;37259;49.972;19.850;2023-04-01T02:27:05;97010;;;10.2;71.5
51195;BME280;37259;49.972;19.850;2023-04-01T02:28:06;97010;;;10.2;71.5
51195;BME280;37259;49.972;19.850;2023-04-01T02:29:05;97010;;;10.2;71.4
51195;BME280;37259;49.972;19.850;2023-04-01T02:30:06;97010;;;10.2;71.4
51195;BME280;37259;49.972;19.850;2023-04-01T02:31:05;97010;;;10.2;71.4
51195;BME280;37259;49.972;19.850;2023-04-01T02:32:05;97010;;;10.2;71.5
51195;BME280;37259;49.972;19.850;2023-04-01T02:33:05;97010;;;10.2;71.5
51195;BME280;37259;49.972;19.850;2023-04-01T02:34:05;97010;;;10.1;71.7
51195;BME280;37259;49.972;19.850;2023-04-01T02:35:06;97020;;;10.1;71.7
51195;BME280;37259;49.972;19.850;2023-04-01T02:36:06;97020;;;10.1;71.7
51195;BME280;37259;49.972;19.850;2023-04-01T02:37:05;97010;;;10.1;71.7
51195;BME280;37259;49.972;19.850;2023-04-01T02:38:05;97010;;;10.1;71.7
51195;BME280;37259;49.972;19.850;2023-04-01T02:39:05;97020;;;10.1;71.9
51195;BME280;37259;49.972;19.850;2023-04-01T02:40:06;97020;;;10.1;71.9
51195;BME280;37259;49.972;19.850;2023-04-01T02:41:05;97020;;;10.1;71.9
51195;BME280;37259;49.972;19.850;2023-04-01T02:42:05;97020;;;10.1;71.9
51195;BME280;37259;49.972;19.850;2023-04-01T02:43:05;97020;;;10.1;71.9
51195;BME280;37259;49.972;19.850;2023-04-01T02:44:05;97020;;;10.1;71.8
51195;BME280;37259;49.972;19.850;2023-04-01T02:45:06;97020;;;10.1;71.8
51195;BME280;37259;49.972;19.850;2023-04-01T02:46:06;97020;;;10.1;71.8
51195;BME280;37259;49.972;19.850;2023-04-01T02:47:05;97020;;;10.1;71.9
51195;BME280;37259;49.972;19.850;2023-04-01T02:48:05;97020;;;10.1;71.9
51195;BME280;37259;49.972;19.850;2023-04-01T02:49:05;97020;;;10.1;72.1
51195;BME280;37259;49.972;19.850;2023-04-01T02:50:06;97020;;;10.1;72.1
51195;BME280;37259;49.972;19.850;2023-04-01T02:51:05;97020;;;10;72.2
51195;BME280;37259;49.972;19.850;2023-04-01T02:52:05;97030;;;10.1;72.3
51195;BME280;37259;49.972;19.850;2023-04-01T02:53:05;97030;;;10.1;72.3
51195;BME280;37259;49.972;19.850;2023-04-01T02:54:05;97030;;;10.1;72.3
51195;BME280;37259;49.972;19.850;2023-04-01T02:55:05;97030;;;10.1;72.3
51195;BME280;37259;49.972;19.850;2023-04-01T02:56:05;97030;;;10.1;72.4
51195;BME280;37259;49.972;19.850;2023-04-01T02:57:05;97030;;;10.1;72.4
51195;BME280;37259;49.972;19.850;2023-04-01T02:58:05;97030;;;10;72.5
51195;BME280;37259;49.972;19.850;2023-04-01T02:59:05;97030;;;10.1;72.4
51195;BME280;37259;49.972;19.850;2023-04-01T03:00:06;97030;;;10.1;72.4
51195;BME280;37259;49.972;19.850;2023-04-01T03:01:05;97030;;;10.1;72.6
51195;BME280;37259;49.972;19.850;2023-04-01T03:02:05;97030;;;10.1;72.6
51195;BME280;37259;49.972;19.850;2023-04-01T03:03:05;97030;;;10.1;72.5
51195;BME280;37259;49.972;19.850;2023-04-01T03:04:05;97030;;;10.1;72.5
51195;BME280;37259;49.972;19.850;2023-04-01T03:05:05;97030;;;10.1;72.5
51195;BME280;37259;49.972;19.850;2023-04-01T03:06:05;97030;;;10.1;72.5
51195;BME280;37259;49.972;19.850;2023-04-01T03:07:05;97030;;;10.1;72.5
51195;BME280;37259;49.972;19.850;2023-04-01T03:08:05;97030;;;10.1;72.5
51195;BME280;37259;49.972;19.850;2023-04-01T03:09:05;97030;;;10.1;72.5
51195;BME280;37259;49.972;19.850;2023-04-01T03:10:05;97030;;;10.1;72.5
51195;BME280;37259;49.972;19.850;2023-04-01T03:11:06;97030;;;10.1;72.5
51195;BME280;37259;49.972;19.850;2023-04-01T03:12:05;97030;;;10.1;72.5
51195;BME280;37259;49.972;19.850;2023-04-01T03:13:05;97030;;;10.1;72.6
51195;BME280;37259;49.972;19.850;2023-04-01T03:14:05;97030;;;10.1;72.6
51195;BME280;37259;49.972;19.850;2023-04-01T03:15:05;97030;;;10.2;72.5
51195;BME280;37259;49.972;19.850;2023-04-01T03:16:05;97030;;;10.1;72.5
51195;BME280;37259;49.972;19.850;2023-04-01T03:17:05;97030;;;10.2;72.5
51195;BME280;37259;49.972;19.850;2023-04-01T03:18:05;97030;;;10.2;72.5
51195;BME280;37259;49.972;19.850;2023-04-01T03:19:05;97030;;;10.2;72.4
51195;BME280;37259;49.972;19.850;2023-04-01T03:20:05;97030;;;10.2;72.4
51195;BME280;37259;49.972;19.850;2023-04-01T03:21:13;97030;;;10.2;72.3
51195;BME280;37259;49.972;19.850;2023-04-01T03:22:05;97030;;;10.2;72.3
51195;BME280;37259;49.972;19.850;2023-04-01T03:23:06;97030;;;10.2;72.3
51195;BME280;37259;49.972;19.850;2023-04-01T03:24:05;97020;;;10.2;72.4
51195;BME280;37259;49.972;19.850;2023-04-01T03:25:05;97020;;;10.2;72.4
51195;BME280;37259;49.972;19.850;2023-04-01T03:26:05;97020;;;10.2;72.4
51195;BME280;37259;49.972;19.850;2023-04-01T03:27:05;97020;;;10.2;72.4
51195;BME280;37259;49.972;19.850;2023-04-01T03:28:05;97020;;;10.2;72.3
51195;BME280;37259;49.972;19.850;2023-04-01T03:29:05;97020;;;10.2;72.3
51195;BME280;37259;49.972;19.850;2023-04-01T03:30:06;97020;;;10.2;72.3
51195;BME280;37259;49.972;19.850;2023-04-01T03:31:05;97020;;;10.2;72.3
51195;BME280;37259;49.972;19.850;2023-04-01T03:32:05;97020;;;10.2;72.4
51195;BME280;37259;49.972;19.850;2023-04-01T03:33:05;97020;;;10.2;72.5
51195;BME280;37259;49.972;19.850;2023-04-01T03:34:05;97020;;;10.2;72.5
51195;BME280;37259;49.972;19.850;2023-04-01T03:35:05;97020;;;10.2;72.5
51195;BME280;37259;49.972;19.850;2023-04-01T03:36:05;97020;;;10.2;72.5
51195;BME280;37259;49.972;19.850;2023-04-01T03:37:05;97020;;;10.2;72.5
51195;BME280;37259;49.972;19.850;2023-04-01T03:38:05;97020;;;10.2;72.5
51195;BME280;37259;49.972;19.850;2023-04-01T03:39:05;97020;;;10.2;72.5
51195;BME280;37259;49.972;19.850;2023-04-01T03:40:05;97020;;;10.2;72.5
51195;BME280;37259;49.972;19.850;2023-04-01T03:41:05;97030;;;10.2;72.5
51195;BME280;37259;49.972;19.850;2023-04-01T03:42:05;97030;;;10.2;72.5
51195;BME280;37259;49.972;19.850;2023-04-01T03:43:05;97020;;;10.2;72.5
51195;BME280;37259;49.972;19.850;2023-04-01T03:44:05;97020;;;10.2;72.5
51195;BME280;37259;49.972;19.850;2023-04-01T03:45:06;97020;;;10.2;72.6
51195;BME280;37259;49.972;19.850;2023-04-01T03:46:05;97020;;;10.2;72.6
51195;BME280;37259;49.972;19.850;2023-04-01T03:47:05;97020;;;10.2;72.6
51195;BME280;37259;49.972;19.850;2023-04-01T03:48:05;97020;;;10.2;72.5
51195;BME280;37259;49.972;19.850;2023-04-01T03:49:06;97020;;;10.2;72.5
51195;BME280;37259;49.972;19.850;2023-04-01T03:50:06;97020;;;10.2;72.6
51195;BME280;37259;49.972;19.850;2023-04-01T03:51:06;97020;;;10.2;72.5
51195;BME280;37259;49.972;19.850;2023-04-01T03:52:07;97020;;;10.2;72.6
51195;BME280;37259;49.972;19.850;2023-04-01T03:53:05;97020;;;10.2;72.6
51195;BME280;37259;49.972;19.850;2023-04-01T03:54:05;97020;;;10.2;72.7
51195;BME280;37259;49.972;19.850;2023-04-01T03:55:05;97020;;;10.2;72.7
51195;BME280;37259;49.972;19.850;2023-04-01T03:56:05;97020;;;10.2;72.7
51195;BME280;37259;49.972;19.850;2023-04-01T03:57:05;97020;;;10.2;72.7
51195;BME280;37259;49.972;19.850;2023-04-01T03:58:06;97020;;;10.2;72.6
51195;BME280;37259;49.972;19.850;2023-04-01T03:59:06;97020;;;10.2;72.6
51195;BME280;37259;49.972;19.850;2023-04-01T04:00:06;97030;;;10.3;72.6
51195;BME280;37259;49.972;19.850;2023-04-01T04:01:12;97030;;;10.2;72.6
51195;BME280;37259;49.972;19.850;2023-04-01T04:02:05;97030;;;10.3;72.6
51195;BME280;37259;49.972;19.850;2023-04-01T04:03:05;97030;;;10.3;72.6
51195;BME280;37259;49.972;19.850;2023-04-01T04:04:05;97030;;;10.2;72.8
51195;BME280;37259;49.972;19.850;2023-04-01T04:05:05;97030;;;10.2;72.8
51195;BME280;37259;49.972;19.850;2023-04-01T04:06:05;97030;;;10.2;72.9
51195;BME280;37259;49.972;19.850;2023-04-01T04:07:05;97030;;;10.2;72.9
51195;BME280;37259;49.972;19.850;2023-04-01T04:08:05;97030;;;10.2;72.8
51195;BME280;37259;49.972;19.850;2023-04-01T04:09:05;97030;;;10.2;72.8
51195;BME280;37259;49.972;19.850;2023-04-01T04:10:06;97030;;;10.2;72.8
51195;BME280;37259;49.972;19.850;2023-04-01T04:11:05;97030;;;10.2;72.7
51195;BME280;37259;49.972;19.850;2023-04-01T04:12:05;97030;;;10.2;72.7
51195;BME280;37259;49.972;19.850;2023-04-01T04:13:05;97030;;;10.2;72.7
51195;BME280;37259;49.972;19.850;2023-04-01T04:14:05;97030;;;10.2;72.7
51195;BME280;37259;49.972;19.850;2023-04-01T04:15:06;97030;;;10.2;72.7
51195;BME280;37259;49.972;19.850;2023-04-01T04:16:05;97040;;;10.3;72.7
51195;BME280;37259;49.972;19.850;2023-04-01T04:17:05;97040;;;10.2;72.8
51195;BME280;37259;49.972;19.850;2023-04-01T04:18:05;97040;;;10.2;72.8
51195;BME280;37259;49.972;19.850;2023-04-01T04:19:05;97040;;;10.2;72.8
51195;BME280;37259;49.972;19.850;2023-04-01T04:20:05;97040;;;10.2;72.8
51195;BME280;37259;49.972;19.850;2023-04-01T04:21:05;97040;;;10.2;72.8
51195;BME280;37259;49.972;19.850;2023-04-01T04:22:05;97040;;;10.3;72.8
51195;BME280;37259;49.972;19.850;2023-04-01T04:23:05;97040;;;10.3;72.8
51195;BME280;37259;49.972;19.850;2023-04-01T04:24:05;97040;;;10.3;73
51195;BME280;37259;49.972;19.850;2023-04-01T04:25:05;97040;;;10.3;73
51195;BME280;37259;49.972;19.850;2023-04-01T04:26:06;97040;;;10.3;73
51195;BME280;37259;49.972;19.850;2023-04-01T04:27:05;97040;;;10.2;73.1
51195;BME280;37259;49.972;19.850;2023-04-01T04:28:05;97040;;;10.3;73
51195;BME280;37259;49.972;19.850;2023-04-01T04:29:05;97040;;;10.3;73
51195;BME280;37259;49.972;19.850;2023-04-01T04:30:06;97040;;;10.3;73
51195;BME280;37259;49.972;19.850;2023-04-01T04:31:05;97040;;;10.3;73
51195;BME280;37259;49.972;19.850;2023-04-01T04:32:05;97040;;;10.3;73
51195;BME280;37259;49.972;19.850;2023-04-01T04:33:05;97050;;;10.3;73
51195;BME280;37259;49.972;19.850;2023-04-01T04:34:05;97050;;;10.2;73.1
51195;BME280;37259;49.972;19.850;2023-04-01T04:35:05;97050;;;10.2;73.1
51195;BME280;37259;49.972;19.850;2023-04-01T04:36:05;97050;;;10.2;73.1
51195;BME280;37259;49.972;19.850;2023-04-01T04:37:05;97050;;;10.2;73.1
51195;BME280;37259;49.972;19.850;2023-04-01T04:38:05;97040;;;10.2;73.1
51195;BME280;37259;49.972;19.850;2023-04-01T04:39:05;97040;;;10.2;73.1
51195;BME280;37259;49.972;19.850;2023-04-01T04:40:06;97040;;;10.2;73.1
51195;BME280;37259;49.972;19.850;2023-04-01T04:41:08;97040;;;10.2;73.3
51195;BME280;37259;49.972;19.850;2023-04-01T04:42:05;97040;;;10.2;73.3
51195;BME280;37259;49.972;19.850;2023-04-01T04:43:05;97040;;;10.2;73.3
51195;BME280;37259;49.972;19.850;2023-04-01T04:44:05;97050;;;10.2;73.2
51195;BME280;37259;49.972;19.850;2023-04-01T04:45:06;97040;;;10.2;73.1
51195;BME280;37259;49.972;19.850;2023-04-01T04:46:05;97040;;;10.2;73.1
51195;BME280;37259;49.972;19.850;2023-04-01T04:47:05;97040;;;10.3;73.2
51195;BME280;37259;49.972;19.850;2023-04-01T04:48:06;97040;;;10.3;73.2
51195;BME280;37259;49.972;19.850;2023-04-01T04:49:05;97040;;;10.2;73.2
51195;BME280;37259;49.972;19.850;2023-04-01T04:50:06;97040;;;10.2;73.3
51195;BME280;37259;49.972;19.850;2023-04-01T04:51:05;97040;;;10.2;73.3
51195;BME280;37259;49.972;19.850;2023-04-01T04:52:05;97040;;;10.2;73.3
51195;BME280;37259;49.972;19.850;2023-04-01T04:53:05;97040;;;10.2;73.3
51195;BME280;37259;49.972;19.850;2023-04-01T04:54:05;97040;;;10.2;73.3
51195;BME280;37259;49.972;19.850;2023-04-01T04:55:05;97050;;;10.2;73.6
51195;BME280;37259;49.972;19.850;2023-04-01T04:56:05;97040;;;10.2;73.6
51195;BME280;37259;49.972;19.850;2023-04-01T04:57:05;97040;;;10.2;73.6
51195;BME280;37259;49.972;19.850;2023-04-01T04:58:05;97050;;;10.2;73.6
51195;BME280;37259;49.972;19.850;2023-04-01T04:59:05;97050;;;10.2;73.5
51195;BME280;37259;49.972;19.850;2023-04-01T05:00:05;97050;;;10.2;73.8
51195;BME280;37259;49.972;19.850;2023-04-01T05:01:06;97050;;;10.2;73.8
51195;BME280;37259;49.972;19.850;2023-04-01T05:02:05;97050;;;10.2;73.7
51195;BME280;37259;49.972;19.850;2023-04-01T05:03:05;97050;;;10.2;73.7
51195;BME280;37259;49.972;19.850;2023-04-01T05:04:05;97050;;;10.2;73.9
51195;BME280;37259;49.972;19.850;2023-04-01T05:05:05;97050;;;10.3;73.8
51195;BME280;37259;49.972;19.850;2023-04-01T05:06:06;97050;;;10.3;74
51195;BME280;37259;49.972;19.850;2023-04-01T05:07:05;97050;;;10.3;74
51195;BME280;37259;49.972;19.850;2023-04-01T05:08:05;97050;;;10.3;74.2
51195;BME280;37259;49.972;19.850;2023-04-01T05:09:05;97050;;;10.3;74.2
51195;BME280;37259;49.972;19.850;2023-04-01T05:10:05;97050;;;10.3;74.4
51195;BME280;37259;49.972;19.850;2023-04-01T05:11:06;97050;;;10.3;74.4
51195;BME280;37259;49.972;19.850;2023-04-01T05:12:05;97050;;;10.3;74.4
51195;BME280;37259;49.972;19.850;2023-04-01T05:13:05;97060;;;10.3;74.7
51195;BME280;37259;49.972;19.850;2023-04-01T05:14:05;97060;;;10.3;74.7
51195;BME280;37259;49.972;19.850;2023-04-01T05:15:06;97050;;;10.2;74.9
51195;BME280;37259;49.972;19.850;2023-04-01T05:16:07;97050;;;10.2;75
51195;BME280;37259;49.972;19.850;2023-04-01T05:17:07;97050;;;10.2;75
51195;BME280;37259;49.972;19.850;2023-04-01T05:18:05;97060;;;10.2;75
51195;BME280;37259;49.972;19.850;2023-04-01T05:19:05;97050;;;10.3;75
51195;BME280;37259;49.972;19.850;2023-04-01T05:20:06;97050;;;10.3;75
51195;BME280;37259;49.972;19.850;2023-04-01T05:21:06;97050;;;10.3;75
51195;BME280;37259;49.972;19.850;2023-04-01T05:22:05;97050;;;10.3;74.9
51195;BME280;37259;49.972;19.850;2023-04-01T05:23:05;97050;;;10.3;74.9
51195;BME280;37259;49.972;19.850;2023-04-01T05:24:07;97050;;;10.3;74.9
51195;BME280;37259;49.972;19.850;2023-04-01T05:25:05;97050;;;10.3;74.9
51195;BME280;37259;49.972;19.850;2023-04-01T05:26:05;97050;;;10.3;75
51195;BME280;37259;49.972;19.850;2023-04-01T05:27:05;97050;;;10.4;75
51195;BME280;37259;49.972;19.850;2023-04-01T05:28:05;97050;;;10.4;75
51195;BME280;37259;49.972;19.850;2023-04-01T05:29:05;97040;;;10.3;75.2
51195;BME280;37259;49.972;19.850;2023-04-01T05:30:06;97050;;;10.4;75.2
51195;BME280;37259;49.972;19.850;2023-04-01T05:31:05;97050;;;10.3;75.1
51195;BME280;37259;49.972;19.850;2023-04-01T05:32:05;97050;;;10.3;75.1
51195;BME280;37259;49.972;19.850;2023-04-01T05:33:05;97040;;;10.4;75.2
51195;BME280;37259;49.972;19.850;2023-04-01T05:34:05;97050;;;10.4;75.2
51195;BME280;37259;49.972;19.850;2023-04-01T05:35:05;97050;;;10.4;75.2
51195;BME280;37259;49.972;19.850;2023-04-01T05:36:06;97050;;;10.4;75.2